sensor_id;sensor_type;location;lat;lon;timestamp;P1;durP1;ratioP1;P2;durP2;ratioP2
68386;SDS011;55338;43.062;25.624;2023-03-01T00:01:34;15.48;;;6.32;;
68386;SDS011;55338;43.062;25.624;2023-03-01T00:04:00;17.20;;;7.33;;
68386;SDS011;55338;43.062;25.624;2023-03-01T00:06:26;17.23;;;7.18;;
68386;SDS011;55338;43.062;25.624;2023-03-01T00:08:52;17.80;;;7.80;;
68386;SDS011;55338;43.062;25.624;2023-03-01T00:11:20;15.57;;;5.60;;
68386;SDS011;55338;43.062;25.624;2023-03-01T00:13:52;12.80;;;5.15;;
68386;SDS011;55338;43.062;25.624;2023-03-01T00:16:23;9.63;;;4.45;;
68386;SDS011;55338;43.062;25.624;2023-03-01T00:18:58;10.38;;;4.38;;
68386;SDS011;55338;43.062;25.624;2023-03-01T00:21:24;9.67;;;4.37;;
68386;SDS011;55338;43.062;25.624;2023-03-01T00:23:51;16.30;;;6.47;;
68386;SDS011;55338;43.062;25.624;2023-03-01T00:26:17;14.30;;;5.88;;
68386;SDS011;55338;43.062;25.624;2023-03-01T00:28:44;11.55;;;4.82;;
68386;SDS011;55338;43.062;25.624;2023-03-01T00:31:11;8.63;;;3.63;;
68386;SDS011;55338;43.062;25.624;2023-03-01T00:33:39;7.03;;;3.00;;
68386;SDS011;55338;43.062;25.624;2023-03-01T00:36:05;6.00;;;2.50;;
68386;SDS011;55338;43.062;25.624;2023-03-01T00:38:34;5.35;;;2.28;;
68386;SDS011;55338;43.062;25.624;2023-03-01T00:41:08;4.70;;;2.13;;
68386;SDS011;55338;43.062;25.624;2023-03-01T00:43:35;7.15;;;2.70;;
68386;SDS011;55338;43.062;25.624;2023-03-01T00:46:02;5.17;;;2.10;;
68386;SDS011;55338;43.062;25.624;2023-03-01T00:48:29;4.22;;;1.83;;
68386;SDS011;55338;43.062;25.624;2023-03-01T00:50:55;5.03;;;2.30;;
68386;SDS011;55338;43.062;25.624;2023-03-01T00:53:24;4.38;;;2.03;;
68386;SDS011;55338;43.062;25.624;2023-03-01T00:55:50;5.33;;;2.20;;
68386;SDS011;55338;43.062;25.624;2023-03-01T00:58:15;4.18;;;1.85;;
68386;SDS011;55338;43.062;25.624;2023-03-01T01:00:41;4.93;;;2.50;;
68386;SDS011;55338;43.062;25.624;2023-03-01T01:03:07;5.93;;;2.50;;
68386;SDS011;55338;43.062;25.624;2023-03-01T01:05:34;5.17;;;2.27;;
68386;SDS011;55338;43.062;25.624;2023-03-01T01:08:00;5.18;;;2.30;;
68386;SDS011;55338;43.062;25.624;2023-03-01T01:10:25;6.28;;;3.13;;
68386;SDS011;55338;43.062;25.624;2023-03-01T01:12:51;6.60;;;3.20;;
68386;SDS011;55338;43.062;25.624;2023-03-01T01:15:17;7.22;;;3.30;;
68386;SDS011;55338;43.062;25.624;2023-03-01T01:17:43;7.57;;;3.77;;
68386;SDS011;55338;43.062;25.624;2023-03-01T01:20:09;7.90;;;3.38;;
68386;SDS011;55338;43.062;25.624;2023-03-01T01:22:35;8.77;;;4.20;;
68386;SDS011;55338;43.062;25.624;2023-03-01T01:25:01;8.43;;;3.93;;
68386;SDS011;55338;43.062;25.624;2023-03-01T01:27:26;7.63;;;3.22;;
68386;SDS011;55338;43.062;25.624;2023-03-01T01:29:52;6.77;;;3.00;;
68386;SDS011;55338;43.062;25.624;2023-03-01T01:32:18;5.70;;;2.63;;
68386;SDS011;55338;43.062;25.624;2023-03-01T01:34:44;5.77;;;2.57;;
68386;SDS011;55338;43.062;25.624;2023-03-01T01:37:09;4.88;;;2.28;;
68386;SDS011;55338;43.062;25.624;2023-03-01T01:39:35;5.20;;;2.47;;
68386;SDS011;55338;43.062;25.624;2023-03-01T01:42:01;4.82;;;1.90;;
68386;SDS011;55338;43.062;25.624;2023-03-01T01:44:27;4.35;;;1.95;;
68386;SDS011;55338;43.062;25.624;2023-03-01T01:46:55;4.18;;;1.90;;
68386;SDS011;55338;43.062;25.624;2023-03-01T01:51:56;4.10;;;1.83;;
68386;SDS011;55338;43.062;25.624;2023-03-01T01:55:10;3.70;;;1.70;;
68386;SDS011;55338;43.062;25.624;2023-03-01T01:57:34;4.00;;;1.90;;
68386;SDS011;55338;43.062;25.624;2023-03-01T02:00:23;4.13;;;1.60;;
68386;SDS011;55338;43.062;25.624;2023-03-01T02:02:54;4.47;;;2.03;;
68386;SDS011;55338;43.062;25.624;2023-03-01T02:05:24;4.18;;;1.70;;
68386;SDS011;55338;43.062;25.624;2023-03-01T02:07:51;4.35;;;1.90;;
68386;SDS011;55338;43.062;25.624;2023-03-01T02:10:18;4.33;;;1.93;;
68386;SDS011;55338;43.062;25.624;2023-03-01T02:12:44;3.63;;;1.58;;
68386;SDS011;55338;43.062;25.624;2023-03-01T02:15:11;4.15;;;1.88;;
68386;SDS011;55338;43.062;25.624;2023-03-01T02:17:36;4.45;;;1.60;;
68386;SDS011;55338;43.062;25.624;2023-03-01T02:22:41;4.35;;;1.83;;
68386;SDS011;55338;43.062;25.624;2023-03-01T02:30:13;4.95;;;1.77;;
68386;SDS011;55338;43.062;25.624;2023-03-01T02:32:42;5.97;;;2.30;;
68386;SDS011;55338;43.062;25.624;2023-03-01T02:35:09;4.90;;;2.35;;
68386;SDS011;55338;43.062;25.624;2023-03-01T02:37:38;4.40;;;2.03;;
68386;SDS011;55338;43.062;25.624;2023-03-01T02:40:07;5.47;;;2.30;;
68386;SDS011;55338;43.062;25.624;2023-03-01T02:42:47;4.30;;;1.97;;
68386;SDS011;55338;43.062;25.624;2023-03-01T02:45:17;3.72;;;1.60;;
68386;SDS011;55338;43.062;25.624;2023-03-01T02:47:42;4.50;;;2.13;;
68386;SDS011;55338;43.062;25.624;2023-03-01T02:55:31;4.20;;;2.10;;
68386;SDS011;55338;43.062;25.624;2023-03-01T02:57:57;4.47;;;2.20;;
68386;SDS011;55338;43.062;25.624;2023-03-01T03:00:26;3.72;;;1.65;;
68386;SDS011;55338;43.062;25.624;2023-03-01T03:02:58;4.38;;;2.17;;
68386;SDS011;55338;43.062;25.624;2023-03-01T03:05:25;6.90;;;2.45;;
68386;SDS011;55338;43.062;25.624;2023-03-01T03:07:53;4.68;;;2.20;;
68386;SDS011;55338;43.062;25.624;2023-03-01T03:12:49;5.10;;;2.28;;
68386;SDS011;55338;43.062;25.624;2023-03-01T03:15:16;4.65;;;2.10;;
68386;SDS011;55338;43.062;25.624;2023-03-01T03:17:42;5.47;;;2.27;;
68386;SDS011;55338;43.062;25.624;2023-03-01T03:20:09;4.35;;;2.10;;
68386;SDS011;55338;43.062;25.624;2023-03-01T03:22:40;5.38;;;2.58;;
68386;SDS011;55338;43.062;25.624;2023-03-01T03:25:09;4.70;;;2.38;;
68386;SDS011;55338;43.062;25.624;2023-03-01T03:27:39;4.43;;;2.10;;
68386;SDS011;55338;43.062;25.624;2023-03-01T03:30:08;4.83;;;2.27;;
68386;SDS011;55338;43.062;25.624;2023-03-01T03:32:40;4.85;;;2.20;;
68386;SDS011;55338;43.062;25.624;2023-03-01T03:35:08;4.53;;;2.20;;
68386;SDS011;55338;43.062;25.624;2023-03-01T03:37:38;5.10;;;2.17;;
68386;SDS011;55338;43.062;25.624;2023-03-01T03:40:24;4.75;;;2.30;;
68386;SDS011;55338;43.062;25.624;2023-03-01T03:42:51;4.67;;;2.23;;
68386;SDS011;55338;43.062;25.624;2023-03-01T03:45:17;5.38;;;2.33;;
68386;SDS011;55338;43.062;25.624;2023-03-01T03:47:43;8.95;;;2.72;;
68386;SDS011;55338;43.062;25.624;2023-03-01T03:50:10;5.37;;;2.57;;
68386;SDS011;55338;43.062;25.624;2023-03-01T03:52:37;5.68;;;2.65;;
68386;SDS011;55338;43.062;25.624;2023-03-01T03:55:03;4.60;;;2.42;;
68386;SDS011;55338;43.062;25.624;2023-03-01T03:57:34;6.50;;;3.00;;
68386;SDS011;55338;43.062;25.624;2023-03-01T04:00:00;5.95;;;2.72;;
68386;SDS011;55338;43.062;25.624;2023-03-01T04:02:29;7.20;;;3.15;;
68386;SDS011;55338;43.062;25.624;2023-03-01T04:04:55;5.27;;;2.77;;
68386;SDS011;55338;43.062;25.624;2023-03-01T04:07:21;5.47;;;2.53;;
68386;SDS011;55338;43.062;25.624;2023-03-01T04:09:47;4.57;;;2.58;;
68386;SDS011;55338;43.062;25.624;2023-03-01T04:12:12;5.33;;;2.60;;
68386;SDS011;55338;43.062;25.624;2023-03-01T04:14:39;5.82;;;2.67;;
68386;SDS011;55338;43.062;25.624;2023-03-01T04:17:05;5.83;;;2.33;;
68386;SDS011;55338;43.062;25.624;2023-03-01T04:19:31;5.07;;;2.28;;
68386;SDS011;55338;43.062;25.624;2023-03-01T04:22:04;7.20;;;2.50;;
68386;SDS011;55338;43.062;25.624;2023-03-01T04:24:37;6.27;;;2.70;;
68386;SDS011;55338;43.062;25.624;2023-03-01T04:27:03;7.22;;;2.80;;
68386;SDS011;55338;43.062;25.624;2023-03-01T04:29:28;6.25;;;2.60;;
68386;SDS011;55338;43.062;25.624;2023-03-01T04:31:54;6.87;;;2.93;;
68386;SDS011;55338;43.062;25.624;2023-03-01T04:34:20;5.93;;;2.83;;
68386;SDS011;55338;43.062;25.624;2023-03-01T04:36:47;7.50;;;3.28;;
68386;SDS011;55338;43.062;25.624;2023-03-01T04:39:13;6.83;;;3.17;;
68386;SDS011;55338;43.062;25.624;2023-03-01T04:41:38;6.53;;;3.03;;
68386;SDS011;55338;43.062;25.624;2023-03-01T04:44:06;5.80;;;3.05;;
68386;SDS011;55338;43.062;25.624;2023-03-01T04:46:34;7.25;;;3.58;;
68386;SDS011;55338;43.062;25.624;2023-03-01T04:49:00;7.57;;;3.53;;
68386;SDS011;55338;43.062;25.624;2023-03-01T04:51:27;6.32;;;3.58;;
68386;SDS011;55338;43.062;25.624;2023-03-01T04:53:53;8.70;;;3.80;;
68386;SDS011;55338;43.062;25.624;2023-03-01T04:56:20;14.75;;;4.38;;
68386;SDS011;55338;43.062;25.624;2023-03-01T04:58:48;7.90;;;4.10;;
68386;SDS011;55338;43.062;25.624;2023-03-01T05:01:18;5.95;;;3.30;;
68386;SDS011;55338;43.062;25.624;2023-03-01T05:03:46;7.95;;;3.78;;
68386;SDS011;55338;43.062;25.624;2023-03-01T05:06:13;8.75;;;4.03;;
68386;SDS011;55338;43.062;25.624;2023-03-01T05:08:40;10.40;;;4.03;;
68386;SDS011;55338;43.062;25.624;2023-03-01T05:11:07;9.88;;;4.07;;
68386;SDS011;55338;43.062;25.624;2023-03-01T05:13:34;7.95;;;4.18;;
68386;SDS011;55338;43.062;25.624;2023-03-01T05:16:02;7.75;;;3.65;;
68386;SDS011;55338;43.062;25.624;2023-03-01T05:18:29;12.27;;;4.45;;
68386;SDS011;55338;43.062;25.624;2023-03-01T05:21:01;9.00;;;4.47;;
68386;SDS011;55338;43.062;25.624;2023-03-01T05:23:34;9.23;;;5.18;;
68386;SDS011;55338;43.062;25.624;2023-03-01T05:26:01;9.77;;;4.55;;
68386;SDS011;55338;43.062;25.624;2023-03-01T05:28:29;9.73;;;4.97;;
68386;SDS011;55338;43.062;25.624;2023-03-01T05:30:55;8.85;;;4.68;;
68386;SDS011;55338;43.062;25.624;2023-03-01T05:33:23;9.60;;;4.50;;
68386;SDS011;55338;43.062;25.624;2023-03-01T05:35:49;11.15;;;5.07;;
68386;SDS011;55338;43.062;25.624;2023-03-01T05:38:16;12.25;;;4.97;;
68386;SDS011;55338;43.062;25.624;2023-03-01T05:40:43;10.18;;;4.65;;
68386;SDS011;55338;43.062;25.624;2023-03-01T05:43:12;10.63;;;5.30;;
68386;SDS011;55338;43.062;25.624;2023-03-01T05:45:40;10.63;;;5.13;;
68386;SDS011;55338;43.062;25.624;2023-03-01T05:48:06;13.15;;;4.78;;
68386;SDS011;55338;43.062;25.624;2023-03-01T05:50:34;8.52;;;4.35;;
68386;SDS011;55338;43.062;25.624;2023-03-01T05:53:15;10.30;;;4.80;;
68386;SDS011;55338;43.062;25.624;2023-03-01T05:55:43;9.65;;;5.07;;
68386;SDS011;55338;43.062;25.624;2023-03-01T05:58:12;8.15;;;4.50;;
68386;SDS011;55338;43.062;25.624;2023-03-01T06:00:41;8.10;;;3.88;;
68386;SDS011;55338;43.062;25.624;2023-03-01T06:03:09;7.22;;;3.67;;
68386;SDS011;55338;43.062;25.624;2023-03-01T06:05:36;8.75;;;4.40;;
68386;SDS011;55338;43.062;25.624;2023-03-01T06:08:05;9.43;;;4.43;;
68386;SDS011;55338;43.062;25.624;2023-03-01T06:10:31;8.30;;;4.20;;
68386;SDS011;55338;43.062;25.624;2023-03-01T06:12:58;10.18;;;4.70;;
68386;SDS011;55338;43.062;25.624;2023-03-01T06:15:24;9.27;;;4.22;;
68386;SDS011;55338;43.062;25.624;2023-03-01T06:17:50;9.25;;;4.70;;
68386;SDS011;55338;43.062;25.624;2023-03-01T06:20:20;9.30;;;4.22;;
68386;SDS011;55338;43.062;25.624;2023-03-01T06:22:52;9.18;;;4.20;;
68386;SDS011;55338;43.062;25.624;2023-03-01T06:25:19;12.85;;;5.28;;
68386;SDS011;55338;43.062;25.624;2023-03-01T06:27:47;8.80;;;4.63;;
68386;SDS011;55338;43.062;25.624;2023-03-01T06:30:18;9.85;;;4.60;;
68386;SDS011;55338;43.062;25.624;2023-03-01T06:32:45;9.77;;;4.72;;
68386;SDS011;55338;43.062;25.624;2023-03-01T06:35:12;10.98;;;4.38;;
68386;SDS011;55338;43.062;25.624;2023-03-01T06:37:42;11.30;;;4.90;;
68386;SDS011;55338;43.062;25.624;2023-03-01T06:40:09;12.07;;;4.82;;
68386;SDS011;55338;43.062;25.624;2023-03-01T06:42:40;10.43;;;4.65;;
68386;SDS011;55338;43.062;25.624;2023-03-01T06:45:07;11.13;;;5.23;;
68386;SDS011;55338;43.062;25.624;2023-03-01T06:47:33;11.07;;;4.97;;
68386;SDS011;55338;43.062;25.624;2023-03-01T06:50:01;9.82;;;4.38;;
68386;SDS011;55338;43.062;25.624;2023-03-01T06:52:33;9.38;;;4.32;;
68386;SDS011;55338;43.062;25.624;2023-03-01T06:54:59;10.53;;;5.07;;
68386;SDS011;55338;43.062;25.624;2023-03-01T06:57:25;8.65;;;4.10;;
68386;SDS011;55338;43.062;25.624;2023-03-01T06:59:57;9.20;;;4.32;;
68386;SDS011;55338;43.062;25.624;2023-03-01T07:02:23;10.40;;;4.35;;
68386;SDS011;55338;43.062;25.624;2023-03-01T07:04:50;8.80;;;4.38;;
68386;SDS011;55338;43.062;25.624;2023-03-01T07:07:17;12.37;;;5.40;;
68386;SDS011;55338;43.062;25.624;2023-03-01T07:09:46;11.30;;;4.95;;
68386;SDS011;55338;43.062;25.624;2023-03-01T07:12:13;11.68;;;5.35;;
68386;SDS011;55338;43.062;25.624;2023-03-01T07:14:39;11.50;;;4.47;;
68386;SDS011;55338;43.062;25.624;2023-03-01T07:17:05;9.98;;;4.47;;
68386;SDS011;55338;43.062;25.624;2023-03-01T07:19:31;14.80;;;4.90;;
68386;SDS011;55338;43.062;25.624;2023-03-01T07:21:57;10.10;;;4.60;;
68386;SDS011;55338;43.062;25.624;2023-03-01T07:24:23;13.25;;;5.43;;
68386;SDS011;55338;43.062;25.624;2023-03-01T07:26:49;14.48;;;5.93;;
68386;SDS011;55338;43.062;25.624;2023-03-01T07:29:16;16.02;;;7.65;;
68386;SDS011;55338;43.062;25.624;2023-03-01T07:31:42;19.95;;;8.32;;
68386;SDS011;55338;43.062;25.624;2023-03-01T07:34:09;19.98;;;8.65;;
68386;SDS011;55338;43.062;25.624;2023-03-01T07:36:36;14.77;;;6.78;;
68386;SDS011;55338;43.062;25.624;2023-03-01T07:42:56;14.38;;;7.13;;
68386;SDS011;55338;43.062;25.624;2023-03-01T07:45:23;12.80;;;6.05;;
68386;SDS011;55338;43.062;25.624;2023-03-01T07:47:50;11.98;;;6.10;;
68386;SDS011;55338;43.062;25.624;2023-03-01T07:50:17;9.10;;;4.60;;
68386;SDS011;55338;43.062;25.624;2023-03-01T07:52:47;10.70;;;4.75;;
68386;SDS011;55338;43.062;25.624;2023-03-01T07:55:14;14.43;;;5.43;;
68386;SDS011;55338;43.062;25.624;2023-03-01T07:57:41;11.68;;;4.90;;
68386;SDS011;55338;43.062;25.624;2023-03-01T08:00:08;12.30;;;4.80;;
68386;SDS011;55338;43.062;25.624;2023-03-01T08:02:35;10.77;;;4.25;;
68386;SDS011;55338;43.062;25.624;2023-03-01T08:05:01;9.03;;;4.17;;
68386;SDS011;55338;43.062;25.624;2023-03-01T08:07:27;15.50;;;6.15;;
68386;SDS011;55338;43.062;25.624;2023-03-01T08:09:55;14.18;;;6.32;;
68386;SDS011;55338;43.062;25.624;2023-03-01T08:12:20;15.77;;;7.30;;
68386;SDS011;55338;43.062;25.624;2023-03-01T08:14:46;11.63;;;5.18;;
68386;SDS011;55338;43.062;25.624;2023-03-01T08:17:16;9.55;;;3.83;;
68386;SDS011;55338;43.062;25.624;2023-03-01T08:19:42;9.43;;;4.60;;
68386;SDS011;55338;43.062;25.624;2023-03-01T08:22:08;10.07;;;4.20;;
68386;SDS011;55338;43.062;25.624;2023-03-01T08:24:34;8.85;;;4.10;;
68386;SDS011;55338;43.062;25.624;2023-03-01T08:26:59;11.70;;;3.77;;
68386;SDS011;55338;43.062;25.624;2023-03-01T08:29:27;7.13;;;3.92;;
68386;SDS011;55338;43.062;25.624;2023-03-01T08:31:55;10.80;;;4.50;;
68386;SDS011;55338;43.062;25.624;2023-03-01T08:34:26;9.55;;;4.60;;
68386;SDS011;55338;43.062;25.624;2023-03-01T08:36:52;10.10;;;4.33;;
68386;SDS011;55338;43.062;25.624;2023-03-01T08:39:19;8.77;;;4.55;;
68386;SDS011;55338;43.062;25.624;2023-03-01T08:41:50;10.68;;;4.78;;
68386;SDS011;55338;43.062;25.624;2023-03-01T08:44:16;7.88;;;4.20;;
68386;SDS011;55338;43.062;25.624;2023-03-01T08:46:43;10.30;;;4.22;;
68386;SDS011;55338;43.062;25.624;2023-03-01T08:49:14;9.32;;;4.00;;
68386;SDS011;55338;43.062;25.624;2023-03-01T08:51:45;8.02;;;4.07;;
68386;SDS011;55338;43.062;25.624;2023-03-01T08:54:13;10.63;;;4.53;;
68386;SDS011;55338;43.062;25.624;2023-03-01T08:56:50;8.20;;;4.43;;
68386;SDS011;55338;43.062;25.624;2023-03-01T08:59:17;7.45;;;4.03;;
68386;SDS011;55338;43.062;25.624;2023-03-01T09:01:46;9.55;;;3.90;;
68386;SDS011;55338;43.062;25.624;2023-03-01T09:04:14;7.78;;;3.53;;
68386;SDS011;55338;43.062;25.624;2023-03-01T09:06:43;8.70;;;3.63;;
68386;SDS011;55338;43.062;25.624;2023-03-01T09:09:14;7.68;;;3.83;;
68386;SDS011;55338;43.062;25.624;2023-03-01T09:11:45;8.40;;;4.35;;
68386;SDS011;55338;43.062;25.624;2023-03-01T09:14:43;6.97;;;3.80;;
68386;SDS011;55338;43.062;25.624;2023-03-01T09:17:09;9.83;;;4.17;;
68386;SDS011;55338;43.062;25.624;2023-03-01T09:19:36;8.00;;;4.40;;
68386;SDS011;55338;43.062;25.624;2023-03-01T09:22:02;9.43;;;4.07;;
68386;SDS011;55338;43.062;25.624;2023-03-01T09:24:29;8.02;;;3.65;;
68386;SDS011;55338;43.062;25.624;2023-03-01T09:26:55;9.07;;;3.67;;
68386;SDS011;55338;43.062;25.624;2023-03-01T09:29:21;7.47;;;3.53;;
68386;SDS011;55338;43.062;25.624;2023-03-01T09:31:48;7.43;;;3.63;;
68386;SDS011;55338;43.062;25.624;2023-03-01T09:34:14;9.50;;;3.80;;
68386;SDS011;55338;43.062;25.624;2023-03-01T09:36:47;6.95;;;3.70;;
68386;SDS011;55338;43.062;25.624;2023-03-01T09:39:14;7.63;;;3.83;;
68386;SDS011;55338;43.062;25.624;2023-03-01T09:44:31;8.75;;;4.50;;
68386;SDS011;55338;43.062;25.624;2023-03-01T09:47:04;9.98;;;4.50;;
68386;SDS011;55338;43.062;25.624;2023-03-01T09:49:35;9.52;;;4.55;;
68386;SDS011;55338;43.062;25.624;2023-03-01T09:54:53;8.32;;;3.95;;
68386;SDS011;55338;43.062;25.624;2023-03-01T09:57:26;10.05;;;4.40;;
68386;SDS011;55338;43.062;25.624;2023-03-01T10:02:47;9.55;;;4.43;;
68386;SDS011;55338;43.062;25.624;2023-03-01T10:05:38;7.22;;;3.17;;
68386;SDS011;55338;43.062;25.624;2023-03-01T10:10:56;6.95;;;2.85;;
68386;SDS011;55338;43.062;25.624;2023-03-01T10:15:55;7.55;;;3.65;;
68386;SDS011;55338;43.062;25.624;2023-03-01T10:18:28;8.10;;;3.67;;
68386;SDS011;55338;43.062;25.624;2023-03-01T10:21:00;11.35;;;5.00;;
68386;SDS011;55338;43.062;25.624;2023-03-01T10:23:28;8.98;;;3.97;;
68386;SDS011;55338;43.062;25.624;2023-03-01T10:26:05;8.73;;;4.05;;
68386;SDS011;55338;43.062;25.624;2023-03-01T10:31:31;9.55;;;4.30;;
68386;SDS011;55338;43.062;25.624;2023-03-01T10:34:33;9.82;;;4.28;;
68386;SDS011;55338;43.062;25.624;2023-03-01T10:37:08;8.85;;;4.22;;
68386;SDS011;55338;43.062;25.624;2023-03-01T10:39:37;9.68;;;4.68;;
68386;SDS011;55338;43.062;25.624;2023-03-01T10:42:23;9.77;;;4.63;;
68386;SDS011;55338;43.062;25.624;2023-03-01T10:44:53;8.68;;;4.18;;
68386;SDS011;55338;43.062;25.624;2023-03-01T10:49:54;12.73;;;5.10;;
68386;SDS011;55338;43.062;25.624;2023-03-01T10:52:21;12.27;;;5.65;;
68386;SDS011;55338;43.062;25.624;2023-03-01T10:54:54;10.18;;;5.18;;
68386;SDS011;55338;43.062;25.624;2023-03-01T10:57:40;11.77;;;5.93;;
68386;SDS011;55338;43.062;25.624;2023-03-01T11:02:47;11.43;;;6.03;;
68386;SDS011;55338;43.062;25.624;2023-03-01T11:05:26;13.52;;;6.00;;
68386;SDS011;55338;43.062;25.624;2023-03-01T11:07:58;11.43;;;6.03;;
68386;SDS011;55338;43.062;25.624;2023-03-01T11:12:52;11.50;;;6.00;;
68386;SDS011;55338;43.062;25.624;2023-03-01T11:15:26;9.57;;;4.90;;
68386;SDS011;55338;43.062;25.624;2023-03-01T11:17:53;9.80;;;5.30;;
68386;SDS011;55338;43.062;25.624;2023-03-01T11:20:36;10.63;;;4.95;;
68386;SDS011;55338;43.062;25.624;2023-03-01T11:23:10;11.45;;;5.18;;
68386;SDS011;55338;43.062;25.624;2023-03-01T11:25:50;10.02;;;5.20;;
68386;SDS011;55338;43.062;25.624;2023-03-01T11:28:24;9.63;;;4.47;;
68386;SDS011;55338;43.062;25.624;2023-03-01T11:31:00;10.80;;;5.00;;
68386;SDS011;55338;43.062;25.624;2023-03-01T11:36:07;10.90;;;5.28;;
68386;SDS011;55338;43.062;25.624;2023-03-01T11:38:52;12.15;;;5.28;;
68386;SDS011;55338;43.062;25.624;2023-03-01T11:41:20;12.27;;;5.13;;
68386;SDS011;55338;43.062;25.624;2023-03-01T11:52:21;11.50;;;4.63;;
68386;SDS011;55338;43.062;25.624;2023-03-01T11:55:17;12.15;;;5.10;;
68386;SDS011;55338;43.062;25.624;2023-03-01T12:00:41;10.38;;;5.18;;
68386;SDS011;55338;43.062;25.624;2023-03-01T12:09:27;12.50;;;6.25;;
68386;SDS011;55338;43.062;25.624;2023-03-01T12:20:11;11.43;;;5.65;;
68386;SDS011;55338;43.062;25.624;2023-03-01T12:22:53;12.68;;;6.03;;
68386;SDS011;55338;43.062;25.624;2023-03-01T12:28:35;12.45;;;6.70;;
68386;SDS011;55338;43.062;25.624;2023-03-01T12:42:35;19.05;;;9.13;;
68386;SDS011;55338;43.062;25.624;2023-03-01T12:48:22;15.30;;;7.90;;
68386;SDS011;55338;43.062;25.624;2023-03-01T12:50:57;19.85;;;9.13;;
68386;SDS011;55338;43.062;25.624;2023-03-01T12:53:29;16.98;;;8.20;;
68386;SDS011;55338;43.062;25.624;2023-03-01T12:56:06;20.83;;;10.18;;
68386;SDS011;55338;43.062;25.624;2023-03-01T13:01:31;13.20;;;7.03;;
68386;SDS011;55338;43.062;25.624;2023-03-01T13:04:18;11.18;;;6.03;;
68386;SDS011;55338;43.062;25.624;2023-03-01T13:09:19;12.90;;;6.57;;
68386;SDS011;55338;43.062;25.624;2023-03-01T13:11:52;13.05;;;6.68;;
68386;SDS011;55338;43.062;25.624;2023-03-01T13:16:52;15.27;;;7.28;;
68386;SDS011;55338;43.062;25.624;2023-03-01T13:21:57;13.43;;;7.20;;
68386;SDS011;55338;43.062;25.624;2023-03-01T13:24:40;15.50;;;7.90;;
68386;SDS011;55338;43.062;25.624;2023-03-01T13:29:55;15.15;;;7.80;;
68386;SDS011;55338;43.062;25.624;2023-03-01T13:32:30;14.40;;;7.72;;
68386;SDS011;55338;43.062;25.624;2023-03-01T13:37:44;15.07;;;7.80;;
68386;SDS011;55338;43.062;25.624;2023-03-01T13:42:46;19.38;;;8.23;;
68386;SDS011;55338;43.062;25.624;2023-03-01T13:45:21;18.45;;;8.13;;
68386;SDS011;55338;43.062;25.624;2023-03-01T13:47:54;19.25;;;7.53;;
68386;SDS011;55338;43.062;25.624;2023-03-01T13:50:28;14.25;;;7.63;;
68386;SDS011;55338;43.062;25.624;2023-03-01T13:53:04;16.33;;;8.15;;
68386;SDS011;55338;43.062;25.624;2023-03-01T13:55:35;13.43;;;7.78;;
68386;SDS011;55338;43.062;25.624;2023-03-01T13:58:21;18.17;;;7.70;;
68386;SDS011;55338;43.062;25.624;2023-03-01T14:01:00;17.33;;;7.85;;
68386;SDS011;55338;43.062;25.624;2023-03-01T14:03:27;16.30;;;7.35;;
68386;SDS011;55338;43.062;25.624;2023-03-01T14:06:15;16.55;;;8.23;;
68386;SDS011;55338;43.062;25.624;2023-03-01T14:08:45;13.48;;;6.95;;
68386;SDS011;55338;43.062;25.624;2023-03-01T14:14:18;15.23;;;7.38;;
68386;SDS011;55338;43.062;25.624;2023-03-01T14:19:43;17.20;;;7.60;;
68386;SDS011;55338;43.062;25.624;2023-03-01T14:24:54;12.50;;;6.43;;
68386;SDS011;55338;43.062;25.624;2023-03-01T14:27:26;16.08;;;6.60;;
68386;SDS011;55338;43.062;25.624;2023-03-01T14:32:39;17.90;;;7.53;;
68386;SDS011;55338;43.062;25.624;2023-03-01T14:35:25;24.38;;;6.85;;
68386;SDS011;55338;43.062;25.624;2023-03-01T14:37:53;16.45;;;6.25;;
68386;SDS011;55338;43.062;25.624;2023-03-01T14:40:20;14.05;;;6.25;;
68386;SDS011;55338;43.062;25.624;2023-03-01T14:42:49;18.20;;;6.60;;
68386;SDS011;55338;43.062;25.624;2023-03-01T14:45:16;16.38;;;6.40;;
68386;SDS011;55338;43.062;25.624;2023-03-01T14:47:43;14.77;;;5.93;;
68386;SDS011;55338;43.062;25.624;2023-03-01T14:50:27;16.17;;;5.90;;
68386;SDS011;55338;43.062;25.624;2023-03-01T14:53:01;14.73;;;6.03;;
68386;SDS011;55338;43.062;25.624;2023-03-01T14:55:31;21.10;;;6.70;;
68386;SDS011;55338;43.062;25.624;2023-03-01T14:57:59;15.57;;;6.60;;
68386;SDS011;55338;43.062;25.624;2023-03-01T15:00:36;18.13;;;7.22;;
68386;SDS011;55338;43.062;25.624;2023-03-01T15:03:07;15.77;;;7.03;;
68386;SDS011;55338;43.062;25.624;2023-03-01T15:05:38;16.35;;;6.88;;
68386;SDS011;55338;43.062;25.624;2023-03-01T15:08:12;14.80;;;5.90;;
68386;SDS011;55338;43.062;25.624;2023-03-01T15:10:55;18.83;;;7.60;;
68386;SDS011;55338;43.062;25.624;2023-03-01T15:13:31;14.18;;;7.32;;
68386;SDS011;55338;43.062;25.624;2023-03-01T15:18:37;20.33;;;6.00;;
68386;SDS011;55338;43.062;25.624;2023-03-01T15:21:31;13.57;;;5.90;;
68386;SDS011;55338;43.062;25.624;2023-03-01T15:24:06;15.02;;;5.63;;
68386;SDS011;55338;43.062;25.624;2023-03-01T15:26:40;11.25;;;6.05;;
68386;SDS011;55338;43.062;25.624;2023-03-01T15:29:18;16.92;;;6.63;;
68386;SDS011;55338;43.062;25.624;2023-03-01T15:32:03;16.40;;;5.97;;
68386;SDS011;55338;43.062;25.624;2023-03-01T15:34:34;18.77;;;6.30;;
68386;SDS011;55338;43.062;25.624;2023-03-01T15:37:32;20.00;;;6.63;;
68386;SDS011;55338;43.062;25.624;2023-03-01T15:45:30;11.70;;;6.53;;
68386;SDS011;55338;43.062;25.624;2023-03-01T15:48:32;13.33;;;6.97;;
68386;SDS011;55338;43.062;25.624;2023-03-01T15:50:55;15.80;;;6.90;;
68386;SDS011;55338;43.062;25.624;2023-03-01T15:53:23;29.65;;;7.88;;
68386;SDS011;55338;43.062;25.624;2023-03-01T15:55:49;18.33;;;7.80;;
68386;SDS011;55338;43.062;25.624;2023-03-01T16:00:43;22.73;;;8.27;;
68386;SDS011;55338;43.062;25.624;2023-03-01T16:03:10;21.30;;;7.88;;
68386;SDS011;55338;43.062;25.624;2023-03-01T16:05:37;17.75;;;7.13;;
68386;SDS011;55338;43.062;25.624;2023-03-01T16:08:03;16.13;;;7.57;;
68386;SDS011;55338;43.062;25.624;2023-03-01T16:10:31;15.43;;;8.00;;
68386;SDS011;55338;43.062;25.624;2023-03-01T16:12:57;13.50;;;7.30;;
68386;SDS011;55338;43.062;25.624;2023-03-01T16:15:25;18.73;;;7.78;;
68386;SDS011;55338;43.062;25.624;2023-03-01T16:17:55;18.30;;;8.40;;
68386;SDS011;55338;43.062;25.624;2023-03-01T16:20:23;17.95;;;8.80;;
68386;SDS011;55338;43.062;25.624;2023-03-01T16:22:49;23.27;;;8.73;;
68386;SDS011;55338;43.062;25.624;2023-03-01T16:25:16;20.00;;;9.10;;
68386;SDS011;55338;43.062;25.624;2023-03-01T16:27:44;15.45;;;7.03;;
68386;SDS011;55338;43.062;25.624;2023-03-01T16:30:11;14.63;;;7.55;;
68386;SDS011;55338;43.062;25.624;2023-03-01T16:32:39;17.42;;;7.70;;
68386;SDS011;55338;43.062;25.624;2023-03-01T16:35:06;24.67;;;8.95;;
68386;SDS011;55338;43.062;25.624;2023-03-01T16:37:33;19.47;;;8.67;;
68386;SDS011;55338;43.062;25.624;2023-03-01T16:39:59;25.15;;;9.63;;
68386;SDS011;55338;43.062;25.624;2023-03-01T16:42:25;24.25;;;9.27;;
68386;SDS011;55338;43.062;25.624;2023-03-01T16:44:57;20.65;;;8.27;;
68386;SDS011;55338;43.062;25.624;2023-03-01T16:47:23;28.20;;;9.25;;
68386;SDS011;55338;43.062;25.624;2023-03-01T16:49:52;33.58;;;8.95;;
68386;SDS011;55338;43.062;25.624;2023-03-01T16:52:18;22.38;;;9.07;;
68386;SDS011;55338;43.062;25.624;2023-03-01T16:54:45;20.02;;;8.38;;
68386;SDS011;55338;43.062;25.624;2023-03-01T16:57:11;20.10;;;8.43;;